Decoded Metar for FQPB (PEMBA in MOZAMBIQUE) (IATA:POL) | Meteo·Mobile Aviation Weather
aviador You're here:

FQPB Decoded Metar

PEMBA in MOZAMBIQUE
Report Time2018-10-19 08:00:00
UTC Time2018-10-19 08:57:32
Flight Rules vfr VFR
Wind060° at 12 kt
W.Decomp.*RWY 08: 11.6 kt HW 2.9 kt LCW
RWY 35: 2.9 kt HW 11.6 kt RCW
W.Rank060° ranks 4
Current wind is above 060° avg. (8.5)
Visibility9999 m
Phenomena:N/A
Clouds:Few 020 Hf
Expected CloudBase > 1,600 ft AGL from Temp-Dew spread
CeilingNone
Temp28°C (ISA +13)
Dew Point24°C (79% RH)
Heat Index31.9°C
QNH1014 hPa
Density Alt2,057 ft
Elevation164 ft
Report Wrong Elevation
Raw Report
FQPB 190800Z 06012KT 9999 FEW020 BKN/// 28/24 Q1014=

Extra information for FQPB:More info

Metar Taf Metar & Taf Last 4 Metars F.Rules Stats Wind Profile Meteogram Temp Stats Airport Information Weather charts Add Link Nearby VenuesMetar ALERT Operation Metar Decoded Social comments